sensor_id;sensor_type;location;lat;lon;timestamp;temperature;humidity
37281;DHT22;23169;41.804;12.596;2023-06-10T00:00:01;21.80;1.00
37281;DHT22;23169;41.804;12.596;2023-06-10T00:02:35;21.80;1.00
37281;DHT22;23169;41.804;12.596;2023-06-10T00:05:07;21.80;1.00
37281;DHT22;23169;41.804;12.596;2023-06-10T00:07:37;21.80;3.10
37281;DHT22;23169;41.804;12.596;2023-06-10T00:10:09;21.70;3.40
37281;DHT22;23169;41.804;12.596;2023-06-10T00:12:39;21.70;4.00
37281;DHT22;23169;41.804;12.596;2023-06-10T00:15:09;21.70;6.40
37281;DHT22;23169;41.804;12.596;2023-06-10T00:17:38;21.70;10.10
37281;DHT22;23169;41.804;12.596;2023-06-10T00:20:08;21.70;12.30
37281;DHT22;23169;41.804;12.596;2023-06-10T00:22:39;21.70;16.60
37281;DHT22;23169;41.804;12.596;2023-06-10T00:25:09;21.60;16.80
37281;DHT22;23169;41.804;12.596;2023-06-10T00:27:39;21.60;16.70
37281;DHT22;23169;41.804;12.596;2023-06-10T00:30:13;21.60;18.30
37281;DHT22;23169;41.804;12.596;2023-06-10T00:32:42;21.60;21.30
37281;DHT22;23169;41.804;12.596;2023-06-10T00:37:41;21.50;23.90
37281;DHT22;23169;41.804;12.596;2023-06-10T00:40:09;21.50;37.10
37281;DHT22;23169;41.804;12.596;2023-06-10T00:42:38;21.40;38.60
37281;DHT22;23169;41.804;12.596;2023-06-10T00:45:08;21.50;41.10
37281;DHT22;23169;41.804;12.596;2023-06-10T00:50:07;21.40;35.00
37281;DHT22;23169;41.804;12.596;2023-06-10T00:52:36;21.40;46.90
37281;DHT22;23169;41.804;12.596;2023-06-10T00:55:05;21.40;54.90
37281;DHT22;23169;41.804;12.596;2023-06-10T00:57:36;21.40;57.20
37281;DHT22;23169;41.804;12.596;2023-06-10T01:00:06;21.30;55.10
37281;DHT22;23169;41.804;12.596;2023-06-10T01:02:36;21.40;58.40
37281;DHT22;23169;41.804;12.596;2023-06-10T01:05:05;21.40;55.60
37281;DHT22;23169;41.804;12.596;2023-06-10T01:12:57;21.40;62.20
37281;DHT22;23169;41.804;12.596;2023-06-10T01:15:30;21.30;54.50
37281;DHT22;23169;41.804;12.596;2023-06-10T01:18:01;21.30;64.20
37281;DHT22;23169;41.804;12.596;2023-06-10T01:20:31;21.30;66.30
37281;DHT22;23169;41.804;12.596;2023-06-10T01:23:01;21.30;64.20
37281;DHT22;23169;41.804;12.596;2023-06-10T01:25:31;21.30;62.80
37281;DHT22;23169;41.804;12.596;2023-06-10T01:30:56;21.30;70.00
37281;DHT22;23169;41.804;12.596;2023-06-10T01:33:33;21.30;74.40
37281;DHT22;23169;41.804;12.596;2023-06-10T01:36:03;21.20;73.20
37281;DHT22;23169;41.804;12.596;2023-06-10T01:38:42;21.20;73.80
37281;DHT22;23169;41.804;12.596;2023-06-10T01:41:29;21.20;76.90
37281;DHT22;23169;41.804;12.596;2023-06-10T01:43:58;21.20;74.00
37281;DHT22;23169;41.804;12.596;2023-06-10T01:46:44;21.20;76.20
37281;DHT22;23169;41.804;12.596;2023-06-10T01:49:13;21.10;76.10
37281;DHT22;23169;41.804;12.596;2023-06-10T01:54:11;21.10;66.70
37281;DHT22;23169;41.804;12.596;2023-06-10T01:56:40;21.20;74.10
37281;DHT22;23169;41.804;12.596;2023-06-10T01:59:08;21.10;73.60
37281;DHT22;23169;41.804;12.596;2023-06-10T02:06:36;21.10;66.60
37281;DHT22;23169;41.804;12.596;2023-06-10T02:09:07;21.10;78.40
37281;DHT22;23169;41.804;12.596;2023-06-10T02:11:36;21.00;76.00
37281;DHT22;23169;41.804;12.596;2023-06-10T02:14:05;21.00;87.90
37281;DHT22;23169;41.804;12.596;2023-06-10T02:16:35;21.00;76.90
37281;DHT22;23169;41.804;12.596;2023-06-10T02:19:04;21.00;82.20
37281;DHT22;23169;41.804;12.596;2023-06-10T02:21:35;21.00;87.80
37281;DHT22;23169;41.804;12.596;2023-06-10T02:24:04;21.00;93.00
37281;DHT22;23169;41.804;12.596;2023-06-10T02:29:04;20.90;90.30
37281;DHT22;23169;41.804;12.596;2023-06-10T02:31:36;20.80;93.70
37281;DHT22;23169;41.804;12.596;2023-06-10T02:34:06;20.80;93.80
37281;DHT22;23169;41.804;12.596;2023-06-10T02:36:36;20.70;94.70
37281;DHT22;23169;41.804;12.596;2023-06-10T02:39:07;20.70;95.20
37281;DHT22;23169;41.804;12.596;2023-06-10T02:41:37;20.70;96.10
37281;DHT22;23169;41.804;12.596;2023-06-10T02:44:07;20.70;97.20
37281;DHT22;23169;41.804;12.596;2023-06-10T02:46:36;20.70;98.00
37281;DHT22;23169;41.804;12.596;2023-06-10T02:49:05;20.30;99.90
37281;DHT22;23169;41.804;12.596;2023-06-10T02:51:34;20.70;99.90
37281;DHT22;23169;41.804;12.596;2023-06-10T02:54:04;20.70;99.90
37281;DHT22;23169;41.804;12.596;2023-06-10T02:56:33;20.70;99.90
37281;DHT22;23169;41.804;12.596;2023-06-10T02:59:04;20.70;99.90
37281;DHT22;23169;41.804;12.596;2023-06-10T03:01:36;20.70;99.90
37281;DHT22;23169;41.804;12.596;2023-06-10T03:04:06;20.70;99.90
37281;DHT22;23169;41.804;12.596;2023-06-10T03:06:35;20.70;99.90
37281;DHT22;23169;41.804;12.596;2023-06-10T03:09:04;20.70;99.90
37281;DHT22;23169;41.804;12.596;2023-06-10T03:11:35;20.70;99.90
37281;DHT22;23169;41.804;12.596;2023-06-10T03:14:03;20.70;99.90
37281;DHT22;23169;41.804;12.596;2023-06-10T03:16:34;20.70;99.90
37281;DHT22;23169;41.804;12.596;2023-06-10T03:19:03;20.70;99.90
37281;DHT22;23169;41.804;12.596;2023-06-10T03:24:02;20.70;99.90
37281;DHT22;23169;41.804;12.596;2023-06-10T03:26:31;20.70;99.90
37281;DHT22;23169;41.804;12.596;2023-06-10T03:29:00;20.60;99.90
37281;DHT22;23169;41.804;12.596;2023-06-10T03:31:29;20.60;99.90
37281;DHT22;23169;41.804;12.596;2023-06-10T03:33:58;20.60;99.90
37281;DHT22;23169;41.804;12.596;2023-06-10T03:36:32;20.50;99.90
37281;DHT22;23169;41.804;12.596;2023-06-10T03:39:01;20.50;99.90
37281;DHT22;23169;41.804;12.596;2023-06-10T03:41:31;20.50;99.90
37281;DHT22;23169;41.804;12.596;2023-06-10T03:44:00;20.40;99.90
37281;DHT22;23169;41.804;12.596;2023-06-10T03:46:30;20.30;99.90
37281;DHT22;23169;41.804;12.596;2023-06-10T03:48:59;20.30;99.90
37281;DHT22;23169;41.804;12.596;2023-06-10T03:51:33;20.30;99.90
37281;DHT22;23169;41.804;12.596;2023-06-10T03:54:02;20.30;99.90
37281;DHT22;23169;41.804;12.596;2023-06-10T03:56:32;20.30;99.90
37281;DHT22;23169;41.804;12.596;2023-06-10T03:59:01;20.30;99.90
37281;DHT22;23169;41.804;12.596;2023-06-10T04:01:30;20.20;99.90
37281;DHT22;23169;41.804;12.596;2023-06-10T04:03:59;20.30;99.90
37281;DHT22;23169;41.804;12.596;2023-06-10T04:06:29;20.20;99.90
37281;DHT22;23169;41.804;12.596;2023-06-10T04:08:59;20.20;99.90
37281;DHT22;23169;41.804;12.596;2023-06-10T04:11:30;20.20;99.90
37281;DHT22;23169;41.804;12.596;2023-06-10T04:14:00;20.20;99.90
37281;DHT22;23169;41.804;12.596;2023-06-10T04:16:30;20.30;99.90
37281;DHT22;23169;41.804;12.596;2023-06-10T04:18:59;20.30;99.90
37281;DHT22;23169;41.804;12.596;2023-06-10T04:21:28;20.30;99.90
37281;DHT22;23169;41.804;12.596;2023-06-10T04:23:58;20.30;99.90
37281;DHT22;23169;41.804;12.596;2023-06-10T04:26:27;20.30;99.90
37281;DHT22;23169;41.804;12.596;2023-06-10T04:28:57;20.40;99.90
37281;DHT22;23169;41.804;12.596;2023-06-10T04:31:26;20.40;99.90
37281;DHT22;23169;41.804;12.596;2023-06-10T04:33:54;20.40;99.90
37281;DHT22;23169;41.804;12.596;2023-06-10T04:36:23;20.50;99.90
37281;DHT22;23169;41.804;12.596;2023-06-10T04:38:52;20.60;99.90
37281;DHT22;23169;41.804;12.596;2023-06-10T04:41:21;20.60;97.00
37281;DHT22;23169;41.804;12.596;2023-06-10T04:43:51;20.60;95.20
37281;DHT22;23169;41.804;12.596;2023-06-10T04:46:21;20.60;94.40
37281;DHT22;23169;41.804;12.596;2023-06-10T04:48:50;20.70;94.10
37281;DHT22;23169;41.804;12.596;2023-06-10T04:51:21;20.70;90.70
37281;DHT22;23169;41.804;12.596;2023-06-10T04:53:49;20.70;88.90
37281;DHT22;23169;41.804;12.596;2023-06-10T04:56:19;20.70;86.40
37281;DHT22;23169;41.804;12.596;2023-06-10T04:58:48;20.70;87.80
37281;DHT22;23169;41.804;12.596;2023-06-10T05:01:17;20.70;86.20
37281;DHT22;23169;41.804;12.596;2023-06-10T05:03:46;20.80;83.60
37281;DHT22;23169;41.804;12.596;2023-06-10T05:06:14;20.80;79.60
37281;DHT22;23169;41.804;12.596;2023-06-10T05:08:44;20.90;75.50
37281;DHT22;23169;41.804;12.596;2023-06-10T05:11:13;20.90;71.70
37281;DHT22;23169;41.804;12.596;2023-06-10T05:13:43;20.90;63.80
37281;DHT22;23169;41.804;12.596;2023-06-10T05:16:12;20.90;61.30
37281;DHT22;23169;41.804;12.596;2023-06-10T05:18:41;20.90;56.70
37281;DHT22;23169;41.804;12.596;2023-06-10T05:21:10;20.90;53.30
37281;DHT22;23169;41.804;12.596;2023-06-10T05:23:38;20.90;48.90
37281;DHT22;23169;41.804;12.596;2023-06-10T05:26:07;20.90;43.60
37281;DHT22;23169;41.804;12.596;2023-06-10T05:28:37;21.00;42.70
37281;DHT22;23169;41.804;12.596;2023-06-10T05:31:06;21.00;37.00
37281;DHT22;23169;41.804;12.596;2023-06-10T05:33:35;21.10;35.30
37281;DHT22;23169;41.804;12.596;2023-06-10T05:36:04;21.10;34.40
37281;DHT22;23169;41.804;12.596;2023-06-10T05:38:33;21.20;34.70
37281;DHT22;23169;41.804;12.596;2023-06-10T05:41:03;21.20;31.70
37281;DHT22;23169;41.804;12.596;2023-06-10T05:43:33;21.30;31.70
37281;DHT22;23169;41.804;12.596;2023-06-10T05:46:02;21.40;27.80
37281;DHT22;23169;41.804;12.596;2023-06-10T05:48:32;21.40;27.60
37281;DHT22;23169;41.804;12.596;2023-06-10T05:51:02;21.50;26.80
37281;DHT22;23169;41.804;12.596;2023-06-10T05:53:32;21.50;25.20
37281;DHT22;23169;41.804;12.596;2023-06-10T05:56:00;21.60;24.80
37281;DHT22;23169;41.804;12.596;2023-06-10T05:58:31;21.60;24.90
37281;DHT22;23169;41.804;12.596;2023-06-10T06:00:59;21.50;24.90
37281;DHT22;23169;41.804;12.596;2023-06-10T06:03:30;21.50;25.20
37281;DHT22;23169;41.804;12.596;2023-06-10T06:06:01;21.50;23.80
37281;DHT22;23169;41.804;12.596;2023-06-10T06:08:31;21.40;24.30
37281;DHT22;23169;41.804;12.596;2023-06-10T06:10:59;21.30;25.40
37281;DHT22;23169;41.804;12.596;2023-06-10T06:13:29;21.20;25.70
37281;DHT22;23169;41.804;12.596;2023-06-10T06:15:59;21.20;26.30
37281;DHT22;23169;41.804;12.596;2023-06-10T06:18:28;21.20;31.70
37281;DHT22;23169;41.804;12.596;2023-06-10T06:20:56;21.10;26.30
37281;DHT22;23169;41.804;12.596;2023-06-10T06:23:26;21.10;28.20
37281;DHT22;23169;41.804;12.596;2023-06-10T06:25:57;21.20;26.60
37281;DHT22;23169;41.804;12.596;2023-06-10T06:28:26;21.40;26.00
37281;DHT22;23169;41.804;12.596;2023-06-10T06:30:57;21.90;20.40
37281;DHT22;23169;41.804;12.596;2023-06-10T06:33:26;21.70;24.70
37281;DHT22;23169;41.804;12.596;2023-06-10T06:35:58;21.90;23.60
37281;DHT22;23169;41.804;12.596;2023-06-10T06:38:29;22.00;20.80
37281;DHT22;23169;41.804;12.596;2023-06-10T06:40:57;22.20;17.30
37281;DHT22;23169;41.804;12.596;2023-06-10T06:43:32;22.30;15.80
37281;DHT22;23169;41.804;12.596;2023-06-10T06:46:02;22.40;14.40
37281;DHT22;23169;41.804;12.596;2023-06-10T06:48:32;22.40;14.00
37281;DHT22;23169;41.804;12.596;2023-06-10T06:51:00;22.20;5.30
37281;DHT22;23169;41.804;12.596;2023-06-10T06:53:29;22.40;11.00
37281;DHT22;23169;41.804;12.596;2023-06-10T06:55:58;22.40;8.80
37281;DHT22;23169;41.804;12.596;2023-06-10T06:58:27;22.30;8.00
37281;DHT22;23169;41.804;12.596;2023-06-10T07:00:55;22.20;6.70
37281;DHT22;23169;41.804;12.596;2023-06-10T07:03:24;22.20;6.30
37281;DHT22;23169;41.804;12.596;2023-06-10T07:05:53;22.20;5.20
37281;DHT22;23169;41.804;12.596;2023-06-10T07:08:21;22.40;2.40
37281;DHT22;23169;41.804;12.596;2023-06-10T07:10:50;22.60;1.00
37281;DHT22;23169;41.804;12.596;2023-06-10T07:13:23;22.80;1.00
37281;DHT22;23169;41.804;12.596;2023-06-10T07:15:51;22.90;1.00
37281;DHT22;23169;41.804;12.596;2023-06-10T07:18:20;23.10;1.00
37281;DHT22;23169;41.804;12.596;2023-06-10T07:20:49;23.20;1.00
37281;DHT22;23169;41.804;12.596;2023-06-10T07:23:18;23.20;1.00
37281;DHT22;23169;41.804;12.596;2023-06-10T07:25:47;23.20;1.00
37281;DHT22;23169;41.804;12.596;2023-06-10T07:28:15;23.30;1.00
37281;DHT22;23169;41.804;12.596;2023-06-10T07:30:47;23.30;1.00
37281;DHT22;23169;41.804;12.596;2023-06-10T07:33:16;23.40;1.00
37281;DHT22;23169;41.804;12.596;2023-06-10T07:35:45;23.40;1.00
37281;DHT22;23169;41.804;12.596;2023-06-10T07:38:14;23.50;1.00
37281;DHT22;23169;41.804;12.596;2023-06-10T07:40:42;23.60;1.00
37281;DHT22;23169;41.804;12.596;2023-06-10T07:43:11;23.60;1.00
37281;DHT22;23169;41.804;12.596;2023-06-10T07:45:40;23.60;1.00
37281;DHT22;23169;41.804;12.596;2023-06-10T07:48:09;23.40;1.00
37281;DHT22;23169;41.804;12.596;2023-06-10T07:50:38;23.30;1.00
37281;DHT22;23169;41.804;12.596;2023-06-10T07:53:07;23.30;1.00
37281;DHT22;23169;41.804;12.596;2023-06-10T07:55:36;23.30;1.00
37281;DHT22;23169;41.804;12.596;2023-06-10T07:58:08;23.30;1.00
37281;DHT22;23169;41.804;12.596;2023-06-10T08:00:36;23.40;1.00
37281;DHT22;23169;41.804;12.596;2023-06-10T08:03:05;23.40;1.00
37281;DHT22;23169;41.804;12.596;2023-06-10T08:05:36;23.50;1.00
37281;DHT22;23169;41.804;12.596;2023-06-10T08:08:08;23.60;1.00
37281;DHT22;23169;41.804;12.596;2023-06-10T08:10:36;23.70;1.00
37281;DHT22;23169;41.804;12.596;2023-06-10T08:13:04;23.80;1.00
37281;DHT22;23169;41.804;12.596;2023-06-10T08:15:34;24.00;1.00
37281;DHT22;23169;41.804;12.596;2023-06-10T08:18:03;24.10;1.00
37281;DHT22;23169;41.804;12.596;2023-06-10T08:20:33;24.20;1.00
37281;DHT22;23169;41.804;12.596;2023-06-10T08:23:01;24.20;1.00
37281;DHT22;23169;41.804;12.596;2023-06-10T08:25:32;24.30;1.00
37281;DHT22;23169;41.804;12.596;2023-06-10T08:28:03;24.20;1.00
37281;DHT22;23169;41.804;12.596;2023-06-10T08:30:32;24.30;1.00
37281;DHT22;23169;41.804;12.596;2023-06-10T08:33:02;24.30;1.00
37281;DHT22;23169;41.804;12.596;2023-06-10T08:35:31;24.30;1.00
37281;DHT22;23169;41.804;12.596;2023-06-10T08:38:03;24.50;1.00
37281;DHT22;23169;41.804;12.596;2023-06-10T08:40:33;24.40;1.00
37281;DHT22;23169;41.804;12.596;2023-06-10T08:43:17;24.90;1.00
37281;DHT22;23169;41.804;12.596;2023-06-10T08:45:49;25.20;1.00
37281;DHT22;23169;41.804;12.596;2023-06-10T08:48:19;25.20;1.00
37281;DHT22;23169;41.804;12.596;2023-06-10T08:50:50;25.40;1.00
37281;DHT22;23169;41.804;12.596;2023-06-10T08:53:24;25.50;1.00
37281;DHT22;23169;41.804;12.596;2023-06-10T08:55:53;25.80;1.00
37281;DHT22;23169;41.804;12.596;2023-06-10T08:58:23;26.00;1.00
37281;DHT22;23169;41.804;12.596;2023-06-10T09:00:55;25.90;1.00
37281;DHT22;23169;41.804;12.596;2023-06-10T09:03:25;26.00;1.00
37281;DHT22;23169;41.804;12.596;2023-06-10T09:05:55;26.10;1.00
37281;DHT22;23169;41.804;12.596;2023-06-10T09:08:26;26.30;1.00
37281;DHT22;23169;41.804;12.596;2023-06-10T09:10:57;26.10;1.00
37281;DHT22;23169;41.804;12.596;2023-06-10T09:13:25;26.10;1.00
37281;DHT22;23169;41.804;12.596;2023-06-10T09:15:54;26.10;1.00
37281;DHT22;23169;41.804;12.596;2023-06-10T09:18:26;26.20;1.00
37281;DHT22;23169;41.804;12.596;2023-06-10T09:20:54;26.30;1.00
37281;DHT22;23169;41.804;12.596;2023-06-10T09:23:23;26.40;1.00
37281;DHT22;23169;41.804;12.596;2023-06-10T09:25:58;26.60;1.00
37281;DHT22;23169;41.804;12.596;2023-06-10T09:28:27;27.00;1.00
37281;DHT22;23169;41.804;12.596;2023-06-10T09:31:03;27.20;1.00
37281;DHT22;23169;41.804;12.596;2023-06-10T09:33:37;27.40;1.00
37281;DHT22;23169;41.804;12.596;2023-06-10T09:36:10;27.50;1.00
37281;DHT22;23169;41.804;12.596;2023-06-10T09:38:39;27.60;1.00
37281;DHT22;23169;41.804;12.596;2023-06-10T09:41:10;27.30;1.00
37281;DHT22;23169;41.804;12.596;2023-06-10T09:43:42;26.70;1.00
37281;DHT22;23169;41.804;12.596;2023-06-10T09:46:18;26.20;1.00
37281;DHT22;23169;41.804;12.596;2023-06-10T09:48:48;26.10;1.00
37281;DHT22;23169;41.804;12.596;2023-06-10T09:51:16;26.40;1.00
37281;DHT22;23169;41.804;12.596;2023-06-10T09:53:50;26.70;1.00
37281;DHT22;23169;41.804;12.596;2023-06-10T09:56:20;27.10;1.00
37281;DHT22;23169;41.804;12.596;2023-06-10T09:58:53;27.30;1.00
37281;DHT22;23169;41.804;12.596;2023-06-10T10:01:22;27.50;1.00
37281;DHT22;23169;41.804;12.596;2023-06-10T10:03:51;27.90;1.00
37281;DHT22;23169;41.804;12.596;2023-06-10T10:06:20;28.20;1.00
37281;DHT22;23169;41.804;12.596;2023-06-10T10:08:50;28.20;1.00
37281;DHT22;23169;41.804;12.596;2023-06-10T10:11:20;27.70;1.00
37281;DHT22;23169;41.804;12.596;2023-06-10T10:13:55;27.60;1.00
37281;DHT22;23169;41.804;12.596;2023-06-10T10:16:46;27.50;1.00
37281;DHT22;23169;41.804;12.596;2023-06-10T10:19:24;27.40;1.00
37281;DHT22;23169;41.804;12.596;2023-06-10T10:21:55;27.40;1.00
37281;DHT22;23169;41.804;12.596;2023-06-10T10:24:36;27.60;1.00
37281;DHT22;23169;41.804;12.596;2023-06-10T10:29:58;28.20;1.00
37281;DHT22;23169;41.804;12.596;2023-06-10T10:35:24;28.70;1.00
37281;DHT22;23169;41.804;12.596;2023-06-10T10:37:55;28.90;1.00
37281;DHT22;23169;41.804;12.596;2023-06-10T10:40:25;29.20;1.00
37281;DHT22;23169;41.804;12.596;2023-06-10T10:42:56;29.10;1.00
37281;DHT22;23169;41.804;12.596;2023-06-10T10:45:29;29.40;1.00
37281;DHT22;23169;41.804;12.596;2023-06-10T10:47:59;29.20;1.00
37281;DHT22;23169;41.804;12.596;2023-06-10T10:50:33;28.90;1.00
37281;DHT22;23169;41.804;12.596;2023-06-10T10:53:05;29.00;1.00
37281;DHT22;23169;41.804;12.596;2023-06-10T10:55:35;29.10;1.00
37281;DHT22;23169;41.804;12.596;2023-06-10T10:58:07;29.10;1.00
37281;DHT22;23169;41.804;12.596;2023-06-10T11:00:38;28.70;1.00
37281;DHT22;23169;41.804;12.596;2023-06-10T11:03:16;28.80;1.00
37281;DHT22;23169;41.804;12.596;2023-06-10T11:05:48;29.00;1.00
37281;DHT22;23169;41.804;12.596;2023-06-10T11:11:21;29.30;1.00
37281;DHT22;23169;41.804;12.596;2023-06-10T11:14:06;29.70;1.00
37281;DHT22;23169;41.804;12.596;2023-06-10T11:16:42;29.50;1.00
37281;DHT22;23169;41.804;12.596;2023-06-10T11:19:39;29.50;1.00
37281;DHT22;23169;41.804;12.596;2023-06-10T11:22:18;29.60;1.00
37281;DHT22;23169;41.804;12.596;2023-06-10T11:24:49;29.20;1.00
37281;DHT22;23169;41.804;12.596;2023-06-10T11:27:23;28.50;1.00
37281;DHT22;23169;41.804;12.596;2023-06-10T11:30:19;28.10;1.00
37281;DHT22;23169;41.804;12.596;2023-06-10T11:32:51;28.30;1.00
37281;DHT22;23169;41.804;12.596;2023-06-10T11:35:23;28.80;1.00
37281;DHT22;23169;41.804;12.596;2023-06-10T11:37:52;28.80;1.00
37281;DHT22;23169;41.804;12.596;2023-06-10T11:40:21;28.60;1.00
37281;DHT22;23169;41.804;12.596;2023-06-10T11:42:50;28.30;1.00
37281;DHT22;23169;41.804;12.596;2023-06-10T11:45:19;28.00;1.00
37281;DHT22;23169;41.804;12.596;2023-06-10T11:48:00;28.10;1.00
37281;DHT22;23169;41.804;12.596;2023-06-10T11:50:33;28.30;1.00
37281;DHT22;23169;41.804;12.596;2023-06-10T11:53:03;28.80;1.00
37281;DHT22;23169;41.804;12.596;2023-06-10T11:55:42;29.70;1.00
37281;DHT22;23169;41.804;12.596;2023-06-10T11:58:21;29.90;1.00
37281;DHT22;23169;41.804;12.596;2023-06-10T12:00:51;29.30;1.00
37281;DHT22;23169;41.804;12.596;2023-06-10T12:03:23;28.60;1.00
37281;DHT22;23169;41.804;12.596;2023-06-10T12:06:11;28.70;1.00
37281;DHT22;23169;41.804;12.596;2023-06-10T12:08:42;28.40;1.00
37281;DHT22;23169;41.804;12.596;2023-06-10T12:11:11;28.70;1.00
37281;DHT22;23169;41.804;12.596;2023-06-10T12:13:47;28.60;1.00
37281;DHT22;23169;41.804;12.596;2023-06-10T12:16:18;28.80;1.00
37281;DHT22;23169;41.804;12.596;2023-06-10T12:18:47;29.10;1.00
37281;DHT22;23169;41.804;12.596;2023-06-10T12:21:18;29.60;1.00
37281;DHT22;23169;41.804;12.596;2023-06-10T12:24:10;31.20;1.00
37281;DHT22;23169;41.804;12.596;2023-06-10T12:26:42;31.00;1.00
37281;DHT22;23169;41.804;12.596;2023-06-10T12:29:26;31.40;1.00
37281;DHT22;23169;41.804;12.596;2023-06-10T12:31:59;31.70;1.00
37281;DHT22;23169;41.804;12.596;2023-06-10T12:34:34;31.70;1.00
37281;DHT22;23169;41.804;12.596;2023-06-10T12:37:09;31.90;1.00
37281;DHT22;23169;41.804;12.596;2023-06-10T12:39:51;31.90;1.00
37281;DHT22;23169;41.804;12.596;2023-06-10T12:42:25;32.20;1.00
37281;DHT22;23169;41.804;12.596;2023-06-10T12:44:56;32.00;1.00
37281;DHT22;23169;41.804;12.596;2023-06-10T12:47:30;32.00;1.00
37281;DHT22;23169;41.804;12.596;2023-06-10T12:50:04;32.00;1.00
37281;DHT22;23169;41.804;12.596;2023-06-10T12:52:33;32.00;1.00
37281;DHT22;23169;41.804;12.596;2023-06-10T12:55:05;32.60;1.00
37281;DHT22;23169;41.804;12.596;2023-06-10T12:57:34;32.90;1.00
37281;DHT22;23169;41.804;12.596;2023-06-10T13:00:03;32.60;1.00
37281;DHT22;23169;41.804;12.596;2023-06-10T13:02:32;32.30;1.00
37281;DHT22;23169;41.804;12.596;2023-06-10T13:05:02;32.60;1.00
37281;DHT22;23169;41.804;12.596;2023-06-10T13:07:32;33.00;1.00
37281;DHT22;23169;41.804;12.596;2023-06-10T13:10:01;33.00;1.00
37281;DHT22;23169;41.804;12.596;2023-06-10T13:12:30;33.00;1.00
37281;DHT22;23169;41.804;12.596;2023-06-10T13:14:59;33.50;1.00
37281;DHT22;23169;41.804;12.596;2023-06-10T13:17:29;33.20;1.00
37281;DHT22;23169;41.804;12.596;2023-06-10T13:19:57;33.30;1.00
37281;DHT22;23169;41.804;12.596;2023-06-10T13:22:27;33.30;1.00
37281;DHT22;23169;41.804;12.596;2023-06-10T13:24:55;33.40;1.00
37281;DHT22;23169;41.804;12.596;2023-06-10T13:27:24;33.80;1.00
37281;DHT22;23169;41.804;12.596;2023-06-10T13:29:53;33.90;1.00
37281;DHT22;23169;41.804;12.596;2023-06-10T13:32:22;33.70;1.00
37281;DHT22;23169;41.804;12.596;2023-06-10T13:34:50;33.60;1.00
37281;DHT22;23169;41.804;12.596;2023-06-10T13:37:23;33.10;1.00
37281;DHT22;23169;41.804;12.596;2023-06-10T13:39:51;33.30;1.00
37281;DHT22;23169;41.804;12.596;2023-06-10T13:42:21;33.10;1.00
37281;DHT22;23169;41.804;12.596;2023-06-10T13:44:50;32.90;1.00
37281;DHT22;23169;41.804;12.596;2023-06-10T13:47:20;33.10;1.00
37281;DHT22;23169;41.804;12.596;2023-06-10T13:49:49;33.10;1.00
37281;DHT22;23169;41.804;12.596;2023-06-10T13:52:17;33.30;1.00
37281;DHT22;23169;41.804;12.596;2023-06-10T13:54:47;33.10;1.00
37281;DHT22;23169;41.804;12.596;2023-06-10T13:57:17;32.70;1.00
37281;DHT22;23169;41.804;12.596;2023-06-10T13:59:46;32.90;1.00
37281;DHT22;23169;41.804;12.596;2023-06-10T14:02:14;33.20;1.00
37281;DHT22;23169;41.804;12.596;2023-06-10T14:04:43;32.70;1.00
37281;DHT22;23169;41.804;12.596;2023-06-10T14:07:11;32.50;1.00
37281;DHT22;23169;41.804;12.596;2023-06-10T14:09:40;32.40;1.00
37281;DHT22;23169;41.804;12.596;2023-06-10T14:12:09;32.20;1.00
37281;DHT22;23169;41.804;12.596;2023-06-10T14:14:39;32.10;1.00
37281;DHT22;23169;41.804;12.596;2023-06-10T14:17:08;31.60;1.00
37281;DHT22;23169;41.804;12.596;2023-06-10T14:19:37;31.70;1.00
37281;DHT22;23169;41.804;12.596;2023-06-10T14:22:06;31.40;1.00
37281;DHT22;23169;41.804;12.596;2023-06-10T14:24:37;31.30;1.00
37281;DHT22;23169;41.804;12.596;2023-06-10T14:27:06;31.90;1.00
37281;DHT22;23169;41.804;12.596;2023-06-10T14:29:35;31.90;1.00
37281;DHT22;23169;41.804;12.596;2023-06-10T14:32:05;32.10;1.00
37281;DHT22;23169;41.804;12.596;2023-06-10T14:34:33;31.90;1.00
37281;DHT22;23169;41.804;12.596;2023-06-10T14:37:02;32.00;1.00
37281;DHT22;23169;41.804;12.596;2023-06-10T14:39:36;31.50;1.00
37281;DHT22;23169;41.804;12.596;2023-06-10T14:42:05;31.40;1.00
37281;DHT22;23169;41.804;12.596;2023-06-10T14:44:35;31.40;1.00
37281;DHT22;23169;41.804;12.596;2023-06-10T14:47:05;31.60;1.00
37281;DHT22;23169;41.804;12.596;2023-06-10T14:49:35;31.40;1.00
37281;DHT22;23169;41.804;12.596;2023-06-10T14:52:04;31.60;1.00
37281;DHT22;23169;41.804;12.596;2023-06-10T14:54:33;31.80;1.00
37281;DHT22;23169;41.804;12.596;2023-06-10T14:57:07;31.70;1.00
37281;DHT22;23169;41.804;12.596;2023-06-10T14:59:36;31.80;1.00
37281;DHT22;23169;41.804;12.596;2023-06-10T15:02:05;31.90;1.00
37281;DHT22;23169;41.804;12.596;2023-06-10T15:04:34;32.10;1.00
37281;DHT22;23169;41.804;12.596;2023-06-10T15:07:04;31.80;1.00
37281;DHT22;23169;41.804;12.596;2023-06-10T15:09:33;32.20;1.00
37281;DHT22;23169;41.804;12.596;2023-06-10T15:12:01;32.60;1.00
37281;DHT22;23169;41.804;12.596;2023-06-10T15:14:32;32.00;1.00
37281;DHT22;23169;41.804;12.596;2023-06-10T15:17:00;32.50;1.00
37281;DHT22;23169;41.804;12.596;2023-06-10T15:19:30;32.50;1.00
37281;DHT22;23169;41.804;12.596;2023-06-10T15:22:00;32.10;1.00
37281;DHT22;23169;41.804;12.596;2023-06-10T15:24:29;31.90;1.00
37281;DHT22;23169;41.804;12.596;2023-06-10T15:26:58;31.90;1.00
37281;DHT22;23169;41.804;12.596;2023-06-10T15:29:27;31.30;1.00
37281;DHT22;23169;41.804;12.596;2023-06-10T15:31:55;31.30;1.00
37281;DHT22;23169;41.804;12.596;2023-06-10T15:34:23;31.10;1.00
37281;DHT22;23169;41.804;12.596;2023-06-10T15:36:52;29.90;1.00
37281;DHT22;23169;41.804;12.596;2023-06-10T15:39:24;30.10;1.00
37281;DHT22;23169;41.804;12.596;2023-06-10T15:41:55;29.70;1.00
37281;DHT22;23169;41.804;12.596;2023-06-10T15:44:24;29.30;1.00
37281;DHT22;23169;41.804;12.596;2023-06-10T15:46:53;29.30;1.00
37281;DHT22;23169;41.804;12.596;2023-06-10T15:49:22;29.50;1.00
37281;DHT22;23169;41.804;12.596;2023-06-10T15:51:51;29.60;1.00
37281;DHT22;23169;41.804;12.596;2023-06-10T15:54:20;29.70;1.00
37281;DHT22;23169;41.804;12.596;2023-06-10T15:56:48;29.80;1.00
37281;DHT22;23169;41.804;12.596;2023-06-10T15:59:18;30.00;1.00
37281;DHT22;23169;41.804;12.596;2023-06-10T16:01:47;30.20;1.00
37281;DHT22;23169;41.804;12.596;2023-06-10T16:04:16;30.80;1.00
37281;DHT22;23169;41.804;12.596;2023-06-10T16:06:44;31.00;1.00
37281;DHT22;23169;41.804;12.596;2023-06-10T16:09:13;30.70;1.00
37281;DHT22;23169;41.804;12.596;2023-06-10T16:11:42;30.30;1.00
37281;DHT22;23169;41.804;12.596;2023-06-10T16:14:10;29.90;1.00
37281;DHT22;23169;41.804;12.596;2023-06-10T16:16:39;29.80;1.00
37281;DHT22;23169;41.804;12.596;2023-06-10T16:19:08;29.70;1.00